sensor_id;sensor_type;location;lat;lon;timestamp;P1;durP1;ratioP1;P2;durP2;ratioP2
62258;SDS011;48241;48.824;10.102;2022-08-21T00:01:11;7.22;;;3.60;;
62258;SDS011;48241;48.824;10.102;2022-08-21T00:03:40;8.75;;;3.78;;
62258;SDS011;48241;48.824;10.102;2022-08-21T00:06:06;8.75;;;4.05;;
62258;SDS011;48241;48.824;10.102;2022-08-21T00:08:32;6.13;;;3.88;;
62258;SDS011;48241;48.824;10.102;2022-08-21T00:10:58;6.63;;;3.95;;
62258;SDS011;48241;48.824;10.102;2022-08-21T00:13:24;7.60;;;4.30;;
62258;SDS011;48241;48.824;10.102;2022-08-21T00:15:49;5.80;;;4.40;;
62258;SDS011;48241;48.824;10.102;2022-08-21T00:18:15;10.57;;;4.43;;
62258;SDS011;48241;48.824;10.102;2022-08-21T00:20:42;8.10;;;4.55;;
62258;SDS011;48241;48.824;10.102;2022-08-21T00:23:09;9.20;;;4.57;;
62258;SDS011;48241;48.824;10.102;2022-08-21T00:25:35;9.20;;;4.57;;
62258;SDS011;48241;48.824;10.102;2022-08-21T00:28:01;9.57;;;4.57;;
62258;SDS011;48241;48.824;10.102;2022-08-21T00:30:28;6.65;;;4.15;;
62258;SDS011;48241;48.824;10.102;2022-08-21T00:32:54;6.75;;;4.25;;
62258;SDS011;48241;48.824;10.102;2022-08-21T00:35:24;7.25;;;4.10;;
62258;SDS011;48241;48.824;10.102;2022-08-21T00:37:55;6.55;;;4.05;;
62258;SDS011;48241;48.824;10.102;2022-08-21T00:40:23;5.95;;;4.70;;
62258;SDS011;48241;48.824;10.102;2022-08-21T00:42:53;7.85;;;4.28;;
62258;SDS011;48241;48.824;10.102;2022-08-21T00:45:19;7.97;;;4.55;;
62258;SDS011;48241;48.824;10.102;2022-08-21T00:47:48;8.35;;;4.50;;
62258;SDS011;48241;48.824;10.102;2022-08-21T00:50:16;8.20;;;4.28;;
62258;SDS011;48241;48.824;10.102;2022-08-21T00:52:42;7.82;;;4.20;;
62258;SDS011;48241;48.824;10.102;2022-08-21T00:55:09;9.18;;;3.45;;
62258;SDS011;48241;48.824;10.102;2022-08-21T00:57:42;6.43;;;3.58;;
62258;SDS011;48241;48.824;10.102;2022-08-21T01:00:14;7.45;;;3.88;;
62258;SDS011;48241;48.824;10.102;2022-08-21T01:02:44;5.60;;;4.10;;
62258;SDS011;48241;48.824;10.102;2022-08-21T01:05:10;7.05;;;4.28;;
62258;SDS011;48241;48.824;10.102;2022-08-21T01:07:36;10.13;;;4.65;;
62258;SDS011;48241;48.824;10.102;2022-08-21T01:10:03;7.10;;;4.18;;
62258;SDS011;48241;48.824;10.102;2022-08-21T01:12:31;7.38;;;4.47;;
62258;SDS011;48241;48.824;10.102;2022-08-21T01:14:57;10.73;;;5.30;;
62258;SDS011;48241;48.824;10.102;2022-08-21T01:17:23;6.72;;;4.18;;
62258;SDS011;48241;48.824;10.102;2022-08-21T01:19:50;6.80;;;3.78;;
62258;SDS011;48241;48.824;10.102;2022-08-21T01:22:16;5.38;;;3.78;;
62258;SDS011;48241;48.824;10.102;2022-08-21T01:24:41;8.00;;;3.92;;
62258;SDS011;48241;48.824;10.102;2022-08-21T01:27:07;7.25;;;3.75;;
62258;SDS011;48241;48.824;10.102;2022-08-21T01:29:52;6.95;;;3.95;;
62258;SDS011;48241;48.824;10.102;2022-08-21T01:32:22;6.93;;;4.13;;
62258;SDS011;48241;48.824;10.102;2022-08-21T01:34:49;6.88;;;3.72;;
62258;SDS011;48241;48.824;10.102;2022-08-21T01:37:16;5.28;;;3.72;;
62258;SDS011;48241;48.824;10.102;2022-08-21T01:39:43;6.88;;;4.07;;
62258;SDS011;48241;48.824;10.102;2022-08-21T01:42:10;5.72;;;3.85;;
62258;SDS011;48241;48.824;10.102;2022-08-21T01:44:35;8.13;;;4.43;;
62258;SDS011;48241;48.824;10.102;2022-08-21T01:47:06;5.47;;;4.30;;
62258;SDS011;48241;48.824;10.102;2022-08-21T01:49:34;7.43;;;4.43;;
62258;SDS011;48241;48.824;10.102;2022-08-21T01:52:01;5.55;;;4.15;;
62258;SDS011;48241;48.824;10.102;2022-08-21T01:54:28;8.20;;;4.07;;
62258;SDS011;48241;48.824;10.102;2022-08-21T01:56:55;7.25;;;4.82;;
62258;SDS011;48241;48.824;10.102;2022-08-21T01:59:21;9.23;;;4.75;;
62258;SDS011;48241;48.824;10.102;2022-08-21T02:01:48;6.57;;;5.18;;
62258;SDS011;48241;48.824;10.102;2022-08-21T02:04:14;8.43;;;5.03;;
62258;SDS011;48241;48.824;10.102;2022-08-21T02:06:40;7.03;;;5.10;;
62258;SDS011;48241;48.824;10.102;2022-08-21T02:09:07;7.07;;;5.00;;
62258;SDS011;48241;48.824;10.102;2022-08-21T02:11:34;6.07;;;4.50;;
62258;SDS011;48241;48.824;10.102;2022-08-21T02:14:01;7.10;;;5.05;;
62258;SDS011;48241;48.824;10.102;2022-08-21T02:16:27;6.75;;;4.80;;
62258;SDS011;48241;48.824;10.102;2022-08-21T02:18:52;7.55;;;4.60;;
62258;SDS011;48241;48.824;10.102;2022-08-21T02:21:18;5.80;;;4.60;;
62258;SDS011;48241;48.824;10.102;2022-08-21T02:23:44;10.32;;;4.10;;
62258;SDS011;48241;48.824;10.102;2022-08-21T02:26:10;7.13;;;4.55;;
62258;SDS011;48241;48.824;10.102;2022-08-21T02:28:36;7.32;;;4.57;;
62258;SDS011;48241;48.824;10.102;2022-08-21T02:31:03;7.35;;;4.22;;
62258;SDS011;48241;48.824;10.102;2022-08-21T02:33:30;6.03;;;3.85;;
62258;SDS011;48241;48.824;10.102;2022-08-21T02:35:56;8.13;;;4.60;;
62258;SDS011;48241;48.824;10.102;2022-08-21T02:38:23;7.72;;;4.60;;
62258;SDS011;48241;48.824;10.102;2022-08-21T02:40:52;5.55;;;4.50;;
62258;SDS011;48241;48.824;10.102;2022-08-21T02:43:19;7.13;;;4.63;;
62258;SDS011;48241;48.824;10.102;2022-08-21T02:45:46;9.13;;;4.55;;
62258;SDS011;48241;48.824;10.102;2022-08-21T02:48:14;6.63;;;4.78;;
62258;SDS011;48241;48.824;10.102;2022-08-21T02:50:43;5.95;;;4.70;;
62258;SDS011;48241;48.824;10.102;2022-08-21T02:53:11;7.63;;;5.32;;
62258;SDS011;48241;48.824;10.102;2022-08-21T02:55:41;8.73;;;4.95;;
62258;SDS011;48241;48.824;10.102;2022-08-21T02:58:12;7.07;;;4.90;;
62258;SDS011;48241;48.824;10.102;2022-08-21T03:00:39;7.00;;;5.15;;
62258;SDS011;48241;48.824;10.102;2022-08-21T03:03:05;12.43;;;5.43;;
62258;SDS011;48241;48.824;10.102;2022-08-21T03:05:32;7.00;;;5.28;;
62258;SDS011;48241;48.824;10.102;2022-08-21T03:08:00;6.32;;;5.15;;
62258;SDS011;48241;48.824;10.102;2022-08-21T03:10:28;10.43;;;5.53;;
62258;SDS011;48241;48.824;10.102;2022-08-21T03:12:55;8.57;;;5.53;;
62258;SDS011;48241;48.824;10.102;2022-08-21T03:15:22;9.52;;;5.47;;
62258;SDS011;48241;48.824;10.102;2022-08-21T03:17:51;10.00;;;5.70;;
62258;SDS011;48241;48.824;10.102;2022-08-21T03:20:20;7.22;;;5.63;;
62258;SDS011;48241;48.824;10.102;2022-08-21T03:22:47;8.45;;;5.68;;
62258;SDS011;48241;48.824;10.102;2022-08-21T03:25:13;8.70;;;5.68;;
62258;SDS011;48241;48.824;10.102;2022-08-21T03:27:39;8.20;;;5.78;;
62258;SDS011;48241;48.824;10.102;2022-08-21T03:30:06;7.15;;;5.30;;
62258;SDS011;48241;48.824;10.102;2022-08-21T03:32:33;9.50;;;6.45;;
62258;SDS011;48241;48.824;10.102;2022-08-21T03:34:58;9.27;;;5.78;;
62258;SDS011;48241;48.824;10.102;2022-08-21T03:37:25;8.93;;;5.75;;
62258;SDS011;48241;48.824;10.102;2022-08-21T03:42:24;6.40;;;5.13;;
62258;SDS011;48241;48.824;10.102;2022-08-21T03:44:50;8.30;;;5.72;;
62258;SDS011;48241;48.824;10.102;2022-08-21T03:47:16;8.35;;;5.97;;
62258;SDS011;48241;48.824;10.102;2022-08-21T03:49:41;11.32;;;5.75;;
62258;SDS011;48241;48.824;10.102;2022-08-21T03:52:07;9.63;;;5.32;;
62258;SDS011;48241;48.824;10.102;2022-08-21T03:54:33;7.63;;;5.97;;
62258;SDS011;48241;48.824;10.102;2022-08-21T03:56:59;8.68;;;5.93;;
62258;SDS011;48241;48.824;10.102;2022-08-21T03:59:25;8.63;;;5.47;;
62258;SDS011;48241;48.824;10.102;2022-08-21T04:01:54;8.85;;;5.72;;
62258;SDS011;48241;48.824;10.102;2022-08-21T04:04:21;9.18;;;5.80;;
62258;SDS011;48241;48.824;10.102;2022-08-21T04:06:47;8.82;;;5.65;;
62258;SDS011;48241;48.824;10.102;2022-08-21T04:09:14;8.10;;;5.65;;
62258;SDS011;48241;48.824;10.102;2022-08-21T04:11:40;7.47;;;5.30;;
62258;SDS011;48241;48.824;10.102;2022-08-21T04:14:06;7.13;;;5.43;;
62258;SDS011;48241;48.824;10.102;2022-08-21T04:16:31;9.55;;;6.05;;
62258;SDS011;48241;48.824;10.102;2022-08-21T04:18:57;8.55;;;5.80;;
62258;SDS011;48241;48.824;10.102;2022-08-21T04:21:23;9.00;;;5.57;;
62258;SDS011;48241;48.824;10.102;2022-08-21T04:23:49;10.73;;;6.10;;
62258;SDS011;48241;48.824;10.102;2022-08-21T04:26:15;7.95;;;5.85;;
62258;SDS011;48241;48.824;10.102;2022-08-21T04:28:40;8.18;;;5.60;;
62258;SDS011;48241;48.824;10.102;2022-08-21T04:31:06;7.50;;;5.65;;
62258;SDS011;48241;48.824;10.102;2022-08-21T04:33:33;7.65;;;5.68;;
62258;SDS011;48241;48.824;10.102;2022-08-21T04:35:58;6.85;;;5.75;;
62258;SDS011;48241;48.824;10.102;2022-08-21T04:38:24;7.82;;;5.38;;
62258;SDS011;48241;48.824;10.102;2022-08-21T04:40:51;9.32;;;5.50;;
62258;SDS011;48241;48.824;10.102;2022-08-21T04:43:17;9.70;;;5.57;;
62258;SDS011;48241;48.824;10.102;2022-08-21T04:45:46;6.95;;;5.07;;
62258;SDS011;48241;48.824;10.102;2022-08-21T04:48:13;9.00;;;5.88;;
62258;SDS011;48241;48.824;10.102;2022-08-21T04:53:24;9.15;;;5.07;;
62258;SDS011;48241;48.824;10.102;2022-08-21T04:56:01;8.77;;;5.70;;
62258;SDS011;48241;48.824;10.102;2022-08-21T05:00:59;8.65;;;5.18;;
62258;SDS011;48241;48.824;10.102;2022-08-21T05:03:27;6.07;;;5.13;;
62258;SDS011;48241;48.824;10.102;2022-08-21T05:05:56;7.85;;;5.60;;
62258;SDS011;48241;48.824;10.102;2022-08-21T05:08:22;7.53;;;5.50;;
62258;SDS011;48241;48.824;10.102;2022-08-21T05:10:50;10.05;;;5.40;;
62258;SDS011;48241;48.824;10.102;2022-08-21T05:13:16;8.05;;;4.90;;
62258;SDS011;48241;48.824;10.102;2022-08-21T05:15:42;8.38;;;4.97;;
62258;SDS011;48241;48.824;10.102;2022-08-21T05:18:08;6.05;;;4.78;;
62258;SDS011;48241;48.824;10.102;2022-08-21T05:20:33;6.57;;;4.60;;
62258;SDS011;48241;48.824;10.102;2022-08-21T05:23:00;9.15;;;4.53;;
62258;SDS011;48241;48.824;10.102;2022-08-21T05:25:27;6.75;;;4.35;;
62258;SDS011;48241;48.824;10.102;2022-08-21T05:27:52;7.47;;;4.63;;
62258;SDS011;48241;48.824;10.102;2022-08-21T05:30:19;7.03;;;4.18;;
62258;SDS011;48241;48.824;10.102;2022-08-21T05:32:45;5.18;;;4.68;;
62258;SDS011;48241;48.824;10.102;2022-08-21T05:35:12;7.60;;;4.50;;
62258;SDS011;48241;48.824;10.102;2022-08-21T05:37:38;6.03;;;4.28;;
62258;SDS011;48241;48.824;10.102;2022-08-21T05:40:04;6.68;;;4.00;;
62258;SDS011;48241;48.824;10.102;2022-08-21T05:42:32;4.47;;;3.67;;
62258;SDS011;48241;48.824;10.102;2022-08-21T05:44:58;5.78;;;3.80;;
62258;SDS011;48241;48.824;10.102;2022-08-21T05:47:23;5.43;;;3.97;;
62258;SDS011;48241;48.824;10.102;2022-08-21T05:49:49;7.93;;;4.05;;
62258;SDS011;48241;48.824;10.102;2022-08-21T05:52:18;6.35;;;3.67;;
62258;SDS011;48241;48.824;10.102;2022-08-21T05:54:45;6.60;;;4.35;;
62258;SDS011;48241;48.824;10.102;2022-08-21T05:57:11;6.05;;;3.50;;
62258;SDS011;48241;48.824;10.102;2022-08-21T05:59:36;7.13;;;3.83;;
62258;SDS011;48241;48.824;10.102;2022-08-21T06:02:02;5.03;;;3.83;;
62258;SDS011;48241;48.824;10.102;2022-08-21T06:04:28;5.20;;;3.83;;
62258;SDS011;48241;48.824;10.102;2022-08-21T06:06:54;7.70;;;4.00;;
62258;SDS011;48241;48.824;10.102;2022-08-21T06:09:19;4.53;;;3.60;;
62258;SDS011;48241;48.824;10.102;2022-08-21T06:11:45;4.32;;;3.35;;
62258;SDS011;48241;48.824;10.102;2022-08-21T06:14:13;5.72;;;3.15;;
62258;SDS011;48241;48.824;10.102;2022-08-21T06:16:40;4.20;;;2.58;;
62258;SDS011;48241;48.824;10.102;2022-08-21T06:19:05;2.58;;;2.20;;
62258;SDS011;48241;48.824;10.102;2022-08-21T06:21:31;3.05;;;2.10;;
62258;SDS011;48241;48.824;10.102;2022-08-21T06:23:57;3.35;;;2.20;;
62258;SDS011;48241;48.824;10.102;2022-08-21T06:26:22;4.15;;;1.90;;
62258;SDS011;48241;48.824;10.102;2022-08-21T06:28:49;3.97;;;2.15;;
62258;SDS011;48241;48.824;10.102;2022-08-21T06:31:16;4.03;;;1.80;;
62258;SDS011;48241;48.824;10.102;2022-08-21T06:33:44;3.20;;;1.65;;
62258;SDS011;48241;48.824;10.102;2022-08-21T06:36:10;3.28;;;1.90;;
62258;SDS011;48241;48.824;10.102;2022-08-21T06:38:35;3.92;;;1.80;;
62258;SDS011;48241;48.824;10.102;2022-08-21T06:41:02;3.22;;;1.77;;
62258;SDS011;48241;48.824;10.102;2022-08-21T06:43:28;2.78;;;1.98;;
62258;SDS011;48241;48.824;10.102;2022-08-21T06:45:53;3.50;;;2.10;;
62258;SDS011;48241;48.824;10.102;2022-08-21T06:48:19;3.50;;;1.60;;
62258;SDS011;48241;48.824;10.102;2022-08-21T06:50:45;4.05;;;1.85;;
62258;SDS011;48241;48.824;10.102;2022-08-21T06:53:13;3.03;;;1.80;;
62258;SDS011;48241;48.824;10.102;2022-08-21T06:55:40;3.83;;;1.80;;
62258;SDS011;48241;48.824;10.102;2022-08-21T06:58:07;3.72;;;2.20;;
62258;SDS011;48241;48.824;10.102;2022-08-21T07:00:34;1.88;;;1.65;;
62258;SDS011;48241;48.824;10.102;2022-08-21T07:03:00;3.58;;;2.20;;
62258;SDS011;48241;48.824;10.102;2022-08-21T07:05:27;2.22;;;1.88;;
62258;SDS011;48241;48.824;10.102;2022-08-21T07:07:54;5.25;;;2.53;;
62258;SDS011;48241;48.824;10.102;2022-08-21T07:10:19;3.92;;;2.30;;
62258;SDS011;48241;48.824;10.102;2022-08-21T07:12:45;3.53;;;2.72;;
62258;SDS011;48241;48.824;10.102;2022-08-21T07:15:11;6.15;;;2.40;;
62258;SDS011;48241;48.824;10.102;2022-08-21T07:17:36;3.80;;;2.60;;
62258;SDS011;48241;48.824;10.102;2022-08-21T07:20:03;3.60;;;2.30;;
62258;SDS011;48241;48.824;10.102;2022-08-21T07:22:29;3.25;;;2.13;;
62258;SDS011;48241;48.824;10.102;2022-08-21T07:24:55;5.20;;;2.50;;
62258;SDS011;48241;48.824;10.102;2022-08-21T07:27:21;3.17;;;2.13;;
62258;SDS011;48241;48.824;10.102;2022-08-21T07:29:47;4.45;;;2.15;;
62258;SDS011;48241;48.824;10.102;2022-08-21T07:32:13;3.83;;;2.20;;
62258;SDS011;48241;48.824;10.102;2022-08-21T07:34:40;4.10;;;2.00;;
62258;SDS011;48241;48.824;10.102;2022-08-21T07:37:06;3.90;;;2.13;;
62258;SDS011;48241;48.824;10.102;2022-08-21T07:39:31;3.92;;;2.28;;
62258;SDS011;48241;48.824;10.102;2022-08-21T07:41:57;2.95;;;2.20;;
62258;SDS011;48241;48.824;10.102;2022-08-21T07:44:23;3.67;;;2.00;;
62258;SDS011;48241;48.824;10.102;2022-08-21T07:46:48;3.75;;;1.92;;
62258;SDS011;48241;48.824;10.102;2022-08-21T07:49:14;2.90;;;1.95;;
62258;SDS011;48241;48.824;10.102;2022-08-21T07:51:39;2.95;;;2.20;;
62258;SDS011;48241;48.824;10.102;2022-08-21T07:54:05;14.98;;;13.57;;
62258;SDS011;48241;48.824;10.102;2022-08-21T07:56:31;3.13;;;2.00;;
62258;SDS011;48241;48.824;10.102;2022-08-21T07:58:57;4.30;;;1.80;;
62258;SDS011;48241;48.824;10.102;2022-08-21T08:01:23;3.70;;;1.80;;
62258;SDS011;48241;48.824;10.102;2022-08-21T08:03:49;2.75;;;2.10;;
62258;SDS011;48241;48.824;10.102;2022-08-21T08:06:15;3.72;;;2.25;;
62258;SDS011;48241;48.824;10.102;2022-08-21T08:08:43;4.07;;;2.45;;
62258;SDS011;48241;48.824;10.102;2022-08-21T08:11:09;2.55;;;2.05;;
62258;SDS011;48241;48.824;10.102;2022-08-21T08:13:39;3.47;;;2.17;;
62258;SDS011;48241;48.824;10.102;2022-08-21T08:16:13;4.70;;;2.47;;
62258;SDS011;48241;48.824;10.102;2022-08-21T08:18:40;4.05;;;2.30;;
62258;SDS011;48241;48.824;10.102;2022-08-21T08:21:07;4.05;;;2.80;;
62258;SDS011;48241;48.824;10.102;2022-08-21T08:23:33;4.13;;;2.75;;
62258;SDS011;48241;48.824;10.102;2022-08-21T08:25:59;3.83;;;2.53;;
62258;SDS011;48241;48.824;10.102;2022-08-21T08:28:27;4.53;;;3.05;;
62258;SDS011;48241;48.824;10.102;2022-08-21T08:30:53;3.22;;;2.60;;
62258;SDS011;48241;48.824;10.102;2022-08-21T08:33:18;3.88;;;3.00;;
62258;SDS011;48241;48.824;10.102;2022-08-21T08:35:45;4.65;;;3.10;;
62258;SDS011;48241;48.824;10.102;2022-08-21T08:38:12;3.10;;;2.80;;
62258;SDS011;48241;48.824;10.102;2022-08-21T08:43:16;5.57;;;3.20;;
62258;SDS011;48241;48.824;10.102;2022-08-21T08:45:42;4.60;;;2.90;;
62258;SDS011;48241;48.824;10.102;2022-08-21T08:48:14;4.93;;;3.30;;
62258;SDS011;48241;48.824;10.102;2022-08-21T08:50:49;5.40;;;3.35;;
62258;SDS011;48241;48.824;10.102;2022-08-21T08:53:23;4.25;;;3.10;;
62258;SDS011;48241;48.824;10.102;2022-08-21T08:55:56;4.97;;;3.22;;
62258;SDS011;48241;48.824;10.102;2022-08-21T08:58:27;4.88;;;3.25;;
62258;SDS011;48241;48.824;10.102;2022-08-21T09:00:59;5.60;;;3.70;;
62258;SDS011;48241;48.824;10.102;2022-08-21T09:03:26;5.95;;;3.30;;
62258;SDS011;48241;48.824;10.102;2022-08-21T09:11:41;3.13;;;2.78;;
62258;SDS011;48241;48.824;10.102;2022-08-21T09:16:56;4.32;;;3.20;;
62258;SDS011;48241;48.824;10.102;2022-08-21T09:22:28;3.97;;;3.40;;
62258;SDS011;48241;48.824;10.102;2022-08-21T09:25:17;4.15;;;3.00;;
62258;SDS011;48241;48.824;10.102;2022-08-21T09:27:55;4.78;;;3.40;;
62258;SDS011;48241;48.824;10.102;2022-08-21T09:30:23;4.80;;;3.10;;
62258;SDS011;48241;48.824;10.102;2022-08-21T09:32:53;4.50;;;2.90;;
62258;SDS011;48241;48.824;10.102;2022-08-21T09:35:20;4.70;;;3.03;;
62258;SDS011;48241;48.824;10.102;2022-08-21T09:37:50;6.82;;;3.20;;
62258;SDS011;48241;48.824;10.102;2022-08-21T15:45:30;3.40;;;2.13;;
62258;SDS011;48241;48.824;10.102;2022-08-21T15:47:58;4.13;;;1.90;;
62258;SDS011;48241;48.824;10.102;2022-08-21T15:50:24;4.75;;;2.50;;
62258;SDS011;48241;48.824;10.102;2022-08-21T15:52:51;4.25;;;2.33;;
62258;SDS011;48241;48.824;10.102;2022-08-21T15:55:17;4.15;;;2.20;;
62258;SDS011;48241;48.824;10.102;2022-08-21T15:57:43;4.75;;;2.38;;
62258;SDS011;48241;48.824;10.102;2022-08-21T16:00:14;3.70;;;2.25;;
62258;SDS011;48241;48.824;10.102;2022-08-21T16:02:43;5.93;;;2.30;;
62258;SDS011;48241;48.824;10.102;2022-08-21T16:05:11;4.28;;;2.20;;
62258;SDS011;48241;48.824;10.102;2022-08-21T16:07:38;5.50;;;2.40;;
62258;SDS011;48241;48.824;10.102;2022-08-21T16:10:05;5.05;;;2.40;;
62258;SDS011;48241;48.824;10.102;2022-08-21T16:12:32;2.97;;;2.25;;
62258;SDS011;48241;48.824;10.102;2022-08-21T16:15:03;3.83;;;2.47;;
62258;SDS011;48241;48.824;10.102;2022-08-21T16:17:32;4.50;;;2.30;;
62258;SDS011;48241;48.824;10.102;2022-08-21T16:19:59;3.42;;;2.20;;
62258;SDS011;48241;48.824;10.102;2022-08-21T16:22:28;3.67;;;2.40;;
62258;SDS011;48241;48.824;10.102;2022-08-21T16:24:54;3.85;;;2.40;;
62258;SDS011;48241;48.824;10.102;2022-08-21T16:27:19;4.43;;;2.63;;
62258;SDS011;48241;48.824;10.102;2022-08-21T16:29:45;4.47;;;2.40;;
62258;SDS011;48241;48.824;10.102;2022-08-21T16:32:11;5.78;;;2.72;;
62258;SDS011;48241;48.824;10.102;2022-08-21T16:34:39;5.03;;;2.40;;
62258;SDS011;48241;48.824;10.102;2022-08-21T16:37:09;4.55;;;2.42;;
62258;SDS011;48241;48.824;10.102;2022-08-21T16:39:34;4.30;;;2.20;;
62258;SDS011;48241;48.824;10.102;2022-08-21T16:42:00;3.97;;;2.60;;
62258;SDS011;48241;48.824;10.102;2022-08-21T16:44:26;4.55;;;2.50;;
62258;SDS011;48241;48.824;10.102;2022-08-21T16:46:52;5.07;;;2.05;;
62258;SDS011;48241;48.824;10.102;2022-08-21T16:49:18;2.60;;;2.17;;
62258;SDS011;48241;48.824;10.102;2022-08-21T16:51:44;4.35;;;2.30;;
62258;SDS011;48241;48.824;10.102;2022-08-21T16:54:10;3.90;;;2.58;;
62258;SDS011;48241;48.824;10.102;2022-08-21T16:56:36;3.60;;;2.50;;
62258;SDS011;48241;48.824;10.102;2022-08-21T16:59:03;2.88;;;2.00;;
62258;SDS011;48241;48.824;10.102;2022-08-21T17:01:30;3.65;;;2.58;;
62258;SDS011;48241;48.824;10.102;2022-08-21T17:03:58;5.32;;;2.67;;
62258;SDS011;48241;48.824;10.102;2022-08-21T17:06:25;4.43;;;2.30;;
62258;SDS011;48241;48.824;10.102;2022-08-21T17:08:51;4.78;;;2.50;;
62258;SDS011;48241;48.824;10.102;2022-08-21T17:11:21;3.47;;;2.30;;
62258;SDS011;48241;48.824;10.102;2022-08-21T17:14:03;5.72;;;2.35;;
62258;SDS011;48241;48.824;10.102;2022-08-21T17:16:32;4.80;;;2.10;;
62258;SDS011;48241;48.824;10.102;2022-08-21T17:18:58;5.20;;;2.63;;
62258;SDS011;48241;48.824;10.102;2022-08-21T17:21:24;4.40;;;2.33;;
62258;SDS011;48241;48.824;10.102;2022-08-21T17:23:50;5.28;;;2.63;;
62258;SDS011;48241;48.824;10.102;2022-08-21T17:26:16;5.18;;;2.50;;
62258;SDS011;48241;48.824;10.102;2022-08-21T17:28:46;3.33;;;2.33;;
62258;SDS011;48241;48.824;10.102;2022-08-21T17:31:12;6.18;;;2.65;;
62258;SDS011;48241;48.824;10.102;2022-08-21T17:33:42;4.13;;;2.45;;
62258;SDS011;48241;48.824;10.102;2022-08-21T17:36:15;3.65;;;2.28;;
62258;SDS011;48241;48.824;10.102;2022-08-21T17:38:51;5.85;;;2.67;;
62258;SDS011;48241;48.824;10.102;2022-08-21T17:41:17;4.80;;;2.42;;
62258;SDS011;48241;48.824;10.102;2022-08-21T17:43:50;5.03;;;2.60;;
62258;SDS011;48241;48.824;10.102;2022-08-21T17:46:20;4.88;;;2.50;;
62258;SDS011;48241;48.824;10.102;2022-08-21T17:48:47;4.47;;;2.40;;
62258;SDS011;48241;48.824;10.102;2022-08-21T17:51:16;3.47;;;2.40;;
62258;SDS011;48241;48.824;10.102;2022-08-21T17:53:42;5.20;;;2.58;;
62258;SDS011;48241;48.824;10.102;2022-08-21T17:56:09;5.25;;;2.45;;
62258;SDS011;48241;48.824;10.102;2022-08-21T17:58:36;5.93;;;2.40;;
62258;SDS011;48241;48.824;10.102;2022-08-21T18:01:02;3.42;;;2.28;;
62258;SDS011;48241;48.824;10.102;2022-08-21T18:03:29;4.78;;;2.53;;
62258;SDS011;48241;48.824;10.102;2022-08-21T18:05:57;3.10;;;2.20;;
62258;SDS011;48241;48.824;10.102;2022-08-21T18:08:23;4.50;;;2.60;;
62258;SDS011;48241;48.824;10.102;2022-08-21T18:10:49;4.55;;;2.50;;
62258;SDS011;48241;48.824;10.102;2022-08-21T18:13:16;5.00;;;2.55;;
62258;SDS011;48241;48.824;10.102;2022-08-21T18:15:50;5.75;;;2.53;;
62258;SDS011;48241;48.824;10.102;2022-08-21T18:18:18;4.22;;;2.65;;
62258;SDS011;48241;48.824;10.102;2022-08-21T18:20:45;3.83;;;2.45;;
62258;SDS011;48241;48.824;10.102;2022-08-21T18:23:11;3.70;;;2.78;;
62258;SDS011;48241;48.824;10.102;2022-08-21T18:25:36;4.18;;;2.55;;
62258;SDS011;48241;48.824;10.102;2022-08-21T18:28:04;3.80;;;2.38;;
62258;SDS011;48241;48.824;10.102;2022-08-21T18:30:31;3.85;;;2.45;;
62258;SDS011;48241;48.824;10.102;2022-08-21T18:33:08;5.35;;;2.53;;
62258;SDS011;48241;48.824;10.102;2022-08-21T18:35:39;4.45;;;2.33;;
62258;SDS011;48241;48.824;10.102;2022-08-21T18:38:06;4.97;;;2.60;;
62258;SDS011;48241;48.824;10.102;2022-08-21T18:40:32;5.55;;;2.65;;
62258;SDS011;48241;48.824;10.102;2022-08-21T18:43:00;3.53;;;2.28;;
62258;SDS011;48241;48.824;10.102;2022-08-21T18:45:27;4.78;;;2.65;;
62258;SDS011;48241;48.824;10.102;2022-08-21T18:47:53;4.85;;;2.70;;
62258;SDS011;48241;48.824;10.102;2022-08-21T18:50:21;4.93;;;2.72;;
62258;SDS011;48241;48.824;10.102;2022-08-21T18:52:50;3.70;;;2.40;;
62258;SDS011;48241;48.824;10.102;2022-08-21T18:55:16;5.28;;;2.42;;
62258;SDS011;48241;48.824;10.102;2022-08-21T18:57:43;5.65;;;2.63;;
62258;SDS011;48241;48.824;10.102;2022-08-21T19:00:14;3.60;;;2.50;;
62258;SDS011;48241;48.824;10.102;2022-08-21T19:02:45;5.15;;;2.50;;
62258;SDS011;48241;48.824;10.102;2022-08-21T19:05:11;3.88;;;2.28;;
62258;SDS011;48241;48.824;10.102;2022-08-21T19:07:39;5.07;;;2.70;;
62258;SDS011;48241;48.824;10.102;2022-08-21T19:10:09;4.20;;;2.40;;
62258;SDS011;48241;48.824;10.102;2022-08-21T19:12:38;3.80;;;2.70;;
62258;SDS011;48241;48.824;10.102;2022-08-21T19:15:06;6.32;;;2.83;;
62258;SDS011;48241;48.824;10.102;2022-08-21T19:17:33;4.32;;;3.03;;
62258;SDS011;48241;48.824;10.102;2022-08-21T19:20:00;4.50;;;2.72;;
62258;SDS011;48241;48.824;10.102;2022-08-21T19:22:31;4.20;;;2.67;;
62258;SDS011;48241;48.824;10.102;2022-08-21T19:24:57;4.00;;;2.55;;
62258;SDS011;48241;48.824;10.102;2022-08-21T19:27:22;3.97;;;2.60;;
62258;SDS011;48241;48.824;10.102;2022-08-21T19:29:48;4.93;;;2.70;;
62258;SDS011;48241;48.824;10.102;2022-08-21T19:32:14;4.78;;;2.58;;
62258;SDS011;48241;48.824;10.102;2022-08-21T19:34:40;5.60;;;2.70;;
62258;SDS011;48241;48.824;10.102;2022-08-21T19:37:05;3.95;;;2.60;;
62258;SDS011;48241;48.824;10.102;2022-08-21T19:39:42;5.82;;;2.70;;
62258;SDS011;48241;48.824;10.102;2022-08-21T19:42:08;5.03;;;2.50;;
62258;SDS011;48241;48.824;10.102;2022-08-21T19:44:34;4.72;;;2.42;;
62258;SDS011;48241;48.824;10.102;2022-08-21T19:47:03;6.22;;;2.80;;
62258;SDS011;48241;48.824;10.102;2022-08-21T19:49:37;5.18;;;2.60;;
62258;SDS011;48241;48.824;10.102;2022-08-21T19:52:08;3.58;;;2.47;;
62258;SDS011;48241;48.824;10.102;2022-08-21T19:54:34;4.85;;;2.70;;
62258;SDS011;48241;48.824;10.102;2022-08-21T19:57:03;5.95;;;2.90;;
62258;SDS011;48241;48.824;10.102;2022-08-21T19:59:31;3.75;;;2.60;;
62258;SDS011;48241;48.824;10.102;2022-08-21T20:01:59;4.65;;;2.70;;
62258;SDS011;48241;48.824;10.102;2022-08-21T20:04:24;5.47;;;3.00;;
62258;SDS011;48241;48.824;10.102;2022-08-21T20:06:51;5.00;;;2.92;;
62258;SDS011;48241;48.824;10.102;2022-08-21T20:09:16;4.22;;;2.55;;
62258;SDS011;48241;48.824;10.102;2022-08-21T20:11:47;5.10;;;2.90;;
62258;SDS011;48241;48.824;10.102;2022-08-21T20:14:21;3.53;;;2.58;;
62258;SDS011;48241;48.824;10.102;2022-08-21T20:16:52;5.28;;;2.58;;
62258;SDS011;48241;48.824;10.102;2022-08-21T20:19:18;4.38;;;2.50;;
62258;SDS011;48241;48.824;10.102;2022-08-21T20:21:45;4.28;;;2.83;;
62258;SDS011;48241;48.824;10.102;2022-08-21T20:24:11;5.50;;;2.90;;
62258;SDS011;48241;48.824;10.102;2022-08-21T20:26:37;5.72;;;2.95;;
62258;SDS011;48241;48.824;10.102;2022-08-21T20:29:04;5.55;;;3.08;;
62258;SDS011;48241;48.824;10.102;2022-08-21T20:31:30;7.38;;;3.20;;
62258;SDS011;48241;48.824;10.102;2022-08-21T20:33:55;5.18;;;2.80;;
62258;SDS011;48241;48.824;10.102;2022-08-21T20:36:21;5.30;;;3.05;;
62258;SDS011;48241;48.824;10.102;2022-08-21T20:38:47;3.92;;;3.00;;
62258;SDS011;48241;48.824;10.102;2022-08-21T20:41:15;7.30;;;2.75;;
62258;SDS011;48241;48.824;10.102;2022-08-21T20:43:42;6.50;;;2.72;;
62258;SDS011;48241;48.824;10.102;2022-08-21T20:46:08;4.13;;;2.63;;
62258;SDS011;48241;48.824;10.102;2022-08-21T20:48:35;6.15;;;2.80;;
62258;SDS011;48241;48.824;10.102;2022-08-21T20:51:13;6.10;;;2.97;;
62258;SDS011;48241;48.824;10.102;2022-08-21T20:56:35;4.97;;;3.00;;
62258;SDS011;48241;48.824;10.102;2022-08-21T20:59:06;3.97;;;2.97;;
62258;SDS011;48241;48.824;10.102;2022-08-21T21:01:56;5.82;;;3.00;;
62258;SDS011;48241;48.824;10.102;2022-08-21T21:04:36;4.68;;;2.63;;